Time;durP1;ratioP1;P1;durP2;ratioP2;P2;SDS_P1;SDS_P2;PMS_P1;PMS_P2;Temp;Humidity;BMP_temperature;BMP_pressure;BME280_temperature;BME280_humidity;BME280_pressure;Samples;Min_cycle;Max_cycle;Signal;HPM_P1;HPM_P2
2022/11/11 00:01:45;;;;;;;;;9.75;8.75;;;;;11.92;75.92;102593.41;5032649;28;45353;-66
2022/11/11 00:04:11;;;;;;;;;12.00;9.75;;;;;12.06;75.94;102627.72;5032620;27;45398;-67
2022/11/11 00:06:36;;;;;;;;;11.75;9.75;;;;;12.10;75.61;102634.69;5033147;28;45410;-65
2022/11/11 00:09:02;;;;;;;;;7.25;7.25;;;;;12.03;75.93;102626.97;5032882;28;45395;-67
2022/11/11 00:11:27;;;;;;;;;7.50;6.50;;;;;12.01;75.47;102629.72;5032075;28;46110;-67
2022/11/11 00:13:53;;;;;;;;;5.25;5.25;;;;;12.08;75.40;102633.91;5032800;28;45275;-66
2022/11/11 00:16:19;;;;;;;;;8.00;8.00;;;;;12.18;75.55;102633.56;5033036;28;45342;-67
2022/11/11 00:27:13;;;;;;;;;9.75;8.00;;;;;12.19;75.21;102624.63;5030482;28;45534;-69
2022/11/11 00:29:39;;;;;;;;;9.00;7.75;;;;;12.21;75.46;102626.28;5031596;28;45355;-67
2022/11/11 00:32:22;;;;;;;;;8.75;8.25;;;;;12.26;75.56;102629.69;5030429;28;45578;-67
2022/11/11 00:37:33;;;;;;;;;13.50;10.25;;;;;12.32;75.07;102641.94;5031381;28;45384;-68
2022/11/11 00:39:59;;;;;;;;;9.50;8.00;;;;;12.34;74.77;102653.50;5031136;28;45506;-68
2022/11/11 00:42:24;;;;;;;;;11.00;8.50;;;;;12.36;74.98;102662.34;5029396;28;48751;-68
2022/11/11 00:44:50;;;;;;;;;11.00;9.75;;;;;12.39;75.00;102664.00;5029774;28;45376;-67
2022/11/11 00:52:45;;;;;;;;;7.50;5.50;;;;;12.50;74.54;102664.50;5030292;28;45303;-68
2022/11/11 00:55:11;;;;;;;;;6.75;6.25;;;;;12.49;74.48;102665.44;5030976;28;45313;-67
2022/11/11 00:57:36;;;;;;;;;6.25;6.00;;;;;12.49;75.00;102669.94;5030762;27;45430;-67
2022/11/11 01:00:03;;;;;;;;;8.00;7.50;;;;;12.32;74.76;102649.97;5030274;28;45390;-68
2022/11/11 01:02:28;;;;;;;;;6.00;6.00;;;;;12.44;74.99;102662.03;5013472;28;46858;-67
2022/11/11 01:04:54;;;;;;;;;8.00;8.00;;;;;12.34;74.98;102645.47;5012596;28;45341;-68
2022/11/11 01:07:19;;;;;;;;;9.75;9.00;;;;;12.34;74.88;102642.78;5011310;28;45391;-67
2022/11/11 01:09:44;;;;;;;;;7.25;7.25;;;;;12.34;75.71;102658.84;5012539;28;45511;-67
2022/11/11 01:12:10;;;;;;;;;7.00;7.00;;;;;12.28;75.82;102649.25;5013573;28;45661;-68
2022/11/11 01:14:35;;;;;;;;;9.00;8.00;;;;;12.38;75.62;102657.81;5032067;28;45391;-68
2022/11/11 01:17:01;;;;;;;;;7.75;7.75;;;;;12.37;74.97;102648.00;5032495;27;45391;-68
2022/11/11 01:19:26;;;;;;;;;6.75;6.75;;;;;12.50;75.37;102658.25;5032938;27;45313;-68
2022/11/11 01:21:51;;;;;;;;;11.00;11.00;;;;;12.36;75.57;102634.69;5031437;27;46529;-68
2022/11/11 01:24:16;;;;;;;;;7.75;6.75;;;;;12.30;75.56;102622.41;5031905;28;45323;-67
2022/11/11 01:26:42;;;;;;;;;7.00;6.00;;;;;12.46;75.36;102644.13;5032093;28;45293;-67
2022/11/11 01:29:07;;;;;;;;;9.00;7.75;;;;;12.45;75.54;102639.72;5031176;28;45282;-67
2022/11/11 01:31:32;;;;;;;;;7.75;7.75;;;;;12.59;75.33;102658.81;5031256;28;46148;-68
2022/11/11 01:33:58;;;;;;;;;10.25;8.75;;;;;12.66;75.40;102661.25;5031678;28;45277;-68
2022/11/11 01:36:26;;;;;;;;;10.25;9.00;;;;;12.70;75.36;102660.19;5032232;28;45272;-67
2022/11/11 01:38:56;;;;;;;;;11.75;11.25;;;;;12.73;75.57;102665.47;5032574;28;45298;-67
2022/11/11 01:41:34;;;;;;;;;7.25;7.25;;;;;12.73;74.92;102660.97;5031874;28;46246;-68
2022/11/11 01:44:17;;;;;;;;;9.50;7.50;;;;;12.76;75.33;102659.97;5031166;28;45294;-68
2022/11/11 01:46:52;;;;;;;;;11.25;7.75;;;;;12.71;74.90;102641.41;5031513;28;45351;-68
2022/11/11 01:49:30;;;;;;;;;9.75;8.50;;;;;12.87;75.22;102656.88;5031888;27;45254;-67
2022/11/11 01:52:05;;;;;;;;;10.00;7.75;;;;;12.81;74.35;102660.69;5031578;28;45553;-68
2022/11/11 01:54:40;;;;;;;;;11.00;9.50;;;;;12.82;74.68;102667.78;5031001;28;45406;-68
2022/11/11 01:57:23;;;;;;;;;10.00;10.00;;;;;12.76;75.02;102670.69;5030546;28;45275;-68
2022/11/11 01:59:59;;;;;;;;;10.00;9.00;;;;;12.76;75.08;102665.34;5013960;28;45536;-67
2022/11/11 02:02:50;;;;;;;;;7.75;7.25;;;;;12.18;75.02;102556.84;5031625;28;46296;-68
2022/11/11 02:08:33;;;;;;;;;10.25;10.25;;;;;12.77;75.13;102662.59;5031682;28;45599;-68
2022/11/11 02:11:03;;;;;;;;;10.75;9.50;;;;;12.79;74.55;102655.38;5031596;28;45393;-68
2022/11/11 02:16:13;;;;;;;;;8.25;8.25;;;;;12.69;74.95;102634.38;5025016;27;45576;-68
2022/11/11 02:18:40;;;;;;;;;9.25;7.50;;;;;12.75;74.79;102648.41;5016582;28;45386;-68
2022/11/11 02:21:06;;;;;;;;;10.00;8.50;;;;;12.77;74.77;102653.69;5011777;28;45357;-69
2022/11/11 02:23:59;;;;;;;;;8.25;7.00;;;;;12.68;74.63;102651.38;5011602;28;45263;-68
2022/11/11 02:26:26;;;;;;;;;9.75;8.00;;;;;12.68;74.89;102646.88;5009555;28;45483;-68
2022/11/11 02:28:53;;;;;;;;;7.75;7.75;;;;;12.66;74.45;102634.47;5001829;28;45366;-69
2022/11/11 02:31:24;;;;;;;;;10.00;8.25;;;;;12.55;74.61;102609.00;5031528;28;45588;-68
2022/11/11 02:33:49;;;;;;;;;9.00;9.00;;;;;12.74;74.59;102638.63;5019123;27;47446;-68
2022/11/11 02:36:15;;;;;;;;;10.50;9.00;;;;;12.08;73.72;102536.75;5026735;28;45364;-68
2022/11/11 02:38:41;;;;;;;;;7.25;7.25;;;;;12.03;74.31;102530.69;5031297;28;45308;-68
2022/11/11 02:43:49;;;;;;;;;4.00;4.00;;;;;12.49;74.35;102624.41;5014492;28;45791;-68
2022/11/11 02:46:15;;;;;;;;;9.50;7.50;;;;;12.63;74.12;102643.50;5026227;28;46152;-67
2022/11/11 02:48:40;;;;;;;;;9.75;9.25;;;;;12.47;74.18;102610.22;5026789;28;45352;-68
2022/11/11 02:51:07;;;;;;;;;6.25;6.25;;;;;12.61;74.15;102645.38;5010902;28;45430;-68
2022/11/11 02:53:32;;;;;;;;;7.25;7.00;;;;;12.64;73.89;102650.59;5010508;28;45482;-68
2022/11/11 02:55:58;;;;;;;;;8.25;7.50;;;;;12.59;74.02;102640.06;5010054;27;45282;-67
2022/11/11 02:58:23;;;;;;;;;9.00;8.00;;;;;12.57;73.85;102641.94;5026348;27;45238;-67
2022/11/11 03:00:49;;;;;;;;;10.25;8.75;;;;;12.30;73.85;102609.03;5011049;28;45394;-67
2022/11/11 03:03:14;;;;;;;;;7.50;7.25;;;;;12.44;73.89;102649.56;5009235;27;46166;-67
2022/11/11 03:05:39;;;;;;;;;7.25;7.25;;;;;12.41;74.27;102654.13;5011095;28;45292;-68
2022/11/11 03:08:05;;;;;;;;;7.50;7.00;;;;;12.40;74.62;102655.94;5011444;28;45332;-68
2022/11/11 03:10:30;;;;;;;;;8.75;6.50;;;;;12.35;74.48;102649.00;5013419;28;45392;-68
2022/11/11 03:12:56;;;;;;;;;7.00;7.00;;;;;12.16;74.94;102620.25;5022045;28;46239;-68
2022/11/11 03:15:21;;;;;;;;;7.75;7.25;;;;;11.97;74.93;102582.59;5013663;28;45279;-68
2022/11/11 03:17:47;;;;;;;;;12.75;9.25;;;;;12.15;74.91;102617.59;5014272;28;45527;-69
2022/11/11 03:23:14;;;;;;;;;8.50;6.50;;;;;12.06;74.16;102581.38;5033447;28;45850;-68
2022/11/11 03:25:42;;;;;;;;;7.25;4.50;;;;;12.50;74.31;102636.84;5033459;28;45482;-68
2022/11/11 03:28:18;;;;;;;;;7.50;7.50;;;;;12.47;74.31;102643.22;5033206;28;45643;-68
2022/11/11 03:30:46;;;;;;;;;16.00;10.25;;;;;12.42;74.39;102646.06;5048496;28;45381;-68
2022/11/11 03:33:13;;;;;;;;;7.75;7.75;;;;;12.42;74.82;102646.06;5048737;28;47976;-68
2022/11/11 03:35:39;;;;;;;;;11.25;9.00;;;;;12.12;74.54;102578.50;5033415;28;45313;-68
2022/11/11 03:41:02;;;;;;;;;10.75;9.50;;;;;12.41;74.02;102628.25;5028388;27;45510;-68
2022/11/11 03:43:29;;;;;;;;;8.50;7.50;;;;;12.25;74.43;102611.00;5032018;28;45692;-68
2022/11/11 03:45:57;;;;;;;;;9.00;9.00;;;;;12.39;74.22;102646.16;5028054;27;45419;-68
2022/11/11 03:48:23;;;;;;;;;7.25;7.25;;;;;12.36;74.13;102645.41;5069904;27;45406;-68
2022/11/11 03:50:49;;;;;;;;;9.25;8.50;;;;;12.37;74.72;102644.47;5033289;28;45466;-68
2022/11/11 03:53:17;;;;;;;;;10.00;8.50;;;;;12.41;74.24;102646.09;5032892;28;46452;-68
2022/11/11 03:55:42;;;;;;;;;8.00;8.00;;;;;12.24;73.98;102627.97;5031448;28;45387;-69
2022/11/11 03:58:08;;;;;;;;;9.25;9.25;;;;;12.40;73.93;102655.94;5048560;28;45454;-69
2022/11/11 04:00:34;;;;;;;;;8.50;8.50;;;;;12.37;73.91;102663.22;5032709;28;45402;-69
2022/11/11 04:11:33;;;;;;;;;6.50;5.25;;;;;12.14;74.83;102656.88;5033212;28;45403;-69
2022/11/11 04:16:47;;;;;;;;;7.75;7.50;;;;;12.14;74.91;102685.44;5033364;28;45418;-69
2022/11/11 04:21:57;;;;;;;;;13.25;10.00;;;;;12.15;74.30;102676.47;5033197;28;45639;-69
2022/11/11 04:27:12;;;;;;;;;8.50;8.50;;;;;12.22;74.46;102681.56;5033186;28;45460;-69
2022/11/11 04:29:37;;;;;;;;;8.00;6.25;;;;;11.94;74.74;102639.75;5033171;27;45499;-69
2022/11/11 04:34:57;;;;;;;;;10.75;9.25;;;;;12.23;74.49;102661.91;5033111;28;45930;-69
2022/11/11 04:37:24;;;;;;;;;7.75;7.00;;;;;11.99;74.59;102628.88;5015188;28;45359;-69
2022/11/11 04:42:34;;;;;;;;;9.25;8.75;;;;;12.21;74.47;102647.69;5064984;27;45497;-69
2022/11/11 04:47:52;;;;;;;;;9.50;8.50;;;;;11.72;74.35;102570.03;5033247;28;45416;-67
2022/11/11 04:50:17;;;;;;;;;10.00;8.00;;;;;12.19;73.89;102629.97;5032968;28;45299;-67
2022/11/11 04:52:43;;;;;;;;;8.50;8.50;;;;;12.27;74.22;102641.28;5032568;28;45359;-67
2022/11/11 04:57:52;;;;;;;;;8.00;8.00;;;;;12.37;73.80;102661.41;5032653;28;45442;-68
2022/11/11 05:00:18;;;;;;;;;11.75;9.75;;;;;12.39;73.92;102667.59;5032226;28;45346;-68
2022/11/11 05:08:54;;;;;;;;;7.25;7.25;;;;;12.26;73.56;102650.22;5032093;28;45842;-68
2022/11/11 05:10:59;;;;;;;;;8.00;7.00;;;;;12.05;73.67;102635.81;5032476;28;45406;-68
2022/11/11 05:22:12;;;;;;;;;7.50;7.50;;;;;12.19;74.44;102643.34;5032087;28;45346;-68
2022/11/11 05:27:21;;;;;;;;;9.50;8.50;;;;;12.19;74.37;102654.91;5033880;28;45800;-68
2022/11/11 05:29:47;;;;;;;;;8.50;8.50;;;;;12.24;73.79;102660.97;5012407;28;45456;-68
2022/11/11 05:32:17;;;;;;;;;9.00;8.00;;;;;12.19;73.69;102654.06;5012584;28;45319;-68
2022/11/11 05:34:43;;;;;;;;;5.50;5.50;;;;;11.97;74.11;102620.03;5015190;28;45470;-68
2022/11/11 05:37:08;;;;;;;;;10.75;9.50;;;;;12.22;74.51;102659.28;5019535;28;46921;-68
2022/11/11 05:39:33;;;;;;;;;14.25;11.00;;;;;12.20;74.06;102655.78;5027741;28;45414;-69
2022/11/11 05:41:59;;;;;;;;;8.25;8.25;;;;;12.32;73.63;102666.03;5012214;28;45386;-68
2022/11/11 05:44:24;;;;;;;;;8.75;8.75;;;;;12.06;73.96;102611.66;5013191;28;45332;-68
2022/11/11 05:46:50;;;;;;;;;10.75;9.50;;;;;12.15;74.14;102625.63;5030708;28;46927;-68
2022/11/11 05:49:15;;;;;;;;;10.25;8.00;;;;;12.05;73.53;102617.97;5046713;28;45431;-68
2022/11/11 05:51:41;;;;;;;;;7.00;5.50;;;;;12.20;74.09;102645.06;5031631;28;45374;-69
2022/11/11 05:54:07;;;;;;;;;11.50;9.00;;;;;12.05;74.14;102627.78;5032044;28;45412;-69
2022/11/11 05:56:32;;;;;;;;;8.00;8.00;;;;;11.82;74.68;102597.31;5031714;28;45614;-68
2022/11/11 05:58:57;;;;;;;;;7.50;7.50;;;;;12.20;74.07;102650.44;5031654;28;45275;-68
2022/11/11 06:01:23;;;;;;;;;8.00;8.00;;;;;12.19;73.96;102657.59;5030563;28;45260;-68
2022/11/11 06:03:48;;;;;;;;;6.50;6.50;;;;;12.07;73.79;102645.53;5030868;28;45314;-69
2022/11/11 06:06:14;;;;;;;;;12.25;11.00;;;;;12.05;74.18;102644.72;5031597;28;45444;-68
2022/11/11 06:08:40;;;;;;;;;9.50;7.50;;;;;12.07;74.00;102637.50;5031840;28;45289;-68
2022/11/11 06:11:05;;;;;;;;;6.00;5.00;;;;;12.16;73.62;102655.03;5031922;28;45269;-68
2022/11/11 06:13:30;;;;;;;;;9.00;9.00;;;;;12.17;73.61;102650.53;5031962;28;45214;-68
2022/11/11 06:15:56;;;;;;;;;8.50;7.50;;;;;12.22;73.65;102656.63;5031885;28;45544;-68
2022/11/11 06:18:22;;;;;;;;;8.50;6.75;;;;;12.26;73.73;102655.56;5031576;27;45292;-68
2022/11/11 06:20:54;;;;;;;;;7.25;7.25;;;;;12.17;73.71;102655.91;5031100;27;45958;-68
2022/11/11 06:23:21;;;;;;;;;10.25;9.00;;;;;12.21;73.78;102674.44;5031507;28;45782;-68
2022/11/11 06:28:30;;;;;;;;;8.25;8.25;;;;;11.96;73.48;102647.72;5031666;28;45478;-69
2022/11/11 06:30:55;;;;;;;;;14.00;10.50;;;;;12.01;73.88;102663.59;5029210;28;45317;-68
2022/11/11 06:33:21;;;;;;;;;10.75;9.25;;;;;12.08;73.58;102682.06;5031499;28;45427;-68
2022/11/11 06:35:47;;;;;;;;;14.75;10.25;;;;;11.69;73.07;102620.97;5013211;28;46645;-69
2022/11/11 06:38:12;;;;;;;;;11.50;9.75;;;;;11.92;73.47;102676.31;5031783;28;45429;-68
2022/11/11 06:40:38;;;;;;;;;10.00;8.00;;;;;11.94;73.92;102679.88;5031500;28;45393;-69
2022/11/11 06:43:03;;;;;;;;;8.50;8.50;;;;;11.81;73.90;102653.53;5013537;28;45528;-68
2022/11/11 06:45:32;;;;;;;;;9.00;9.00;;;;;11.95;74.12;102678.91;5034287;28;45694;-68
2022/11/11 06:47:57;;;;;;;;;6.00;5.00;;;;;11.95;73.92;102688.75;5034450;28;45454;-69
2022/11/11 06:50:22;;;;;;;;;7.25;6.00;;;;;11.28;73.11;102585.78;5034286;28;45186;-69
2022/11/11 06:52:48;;;;;;;;;9.00;8.25;;;;;11.83;74.09;102689.13;5034151;28;45224;-69
2022/11/11 06:55:13;;;;;;;;;8.00;8.00;;;;;11.91;73.46;102698.63;5033792;27;46203;-69
2022/11/11 06:57:39;;;;;;;;;8.75;7.75;;;;;11.33;73.54;102589.19;5033596;28;45310;-68
2022/11/11 07:00:06;;;;;;;;;7.00;7.00;;;;;12.01;74.14;102709.06;5034695;28;45293;-69
2022/11/11 07:02:31;;;;;;;;;5.50;5.50;;;;;11.95;74.16;102704.78;5033564;28;45493;-68
2022/11/11 07:04:57;;;;;;;;;6.50;5.50;;;;;11.72;73.39;102670.78;5034161;28;45233;-67
2022/11/11 07:07:22;;;;;;;;;9.50;8.00;;;;;11.88;73.64;102693.41;5033968;28;45938;-68
2022/11/11 07:09:47;;;;;;;;;8.00;8.00;;;;;11.99;74.16;102717.13;5034073;28;45314;-68
2022/11/11 07:12:13;;;;;;;;;8.25;7.25;;;;;12.00;73.77;102707.31;5039866;27;45419;-68
2022/11/11 07:14:38;;;;;;;;;8.00;8.00;;;;;12.05;74.13;102716.94;5000070;28;45485;-68
2022/11/11 07:17:04;;;;;;;;;6.25;6.25;;;;;12.04;74.10;102712.50;5014116;28;45427;-69
2022/11/11 07:19:30;;;;;;;;;6.00;6.00;;;;;12.01;73.77;102703.72;5013092;28;45508;-69
2022/11/11 07:21:55;;;;;;;;;8.00;7.25;;;;;11.98;74.10;102703.81;5014354;28;45604;-71
2022/11/11 07:24:21;;;;;;;;;2.00;2.00;;;;;11.82;74.42;102682.91;4995969;28;45442;-68
2022/11/11 07:26:46;;;;;;;;;9.00;7.75;;;;;11.89;74.60;102699.59;5006414;28;45407;-71
2022/11/11 07:29:14;;;;;;;;;7.00;7.00;;;;;11.86;75.16;102705.94;5023108;28;45377;-71
2022/11/11 07:31:39;;;;;;;;;10.00;6.00;;;;;11.70;74.95;102668.16;5032746;27;45342;-71
2022/11/11 07:34:05;;;;;;;;;7.00;5.50;;;;;11.95;75.03;102711.00;5032908;27;47587;-71
2022/11/11 07:36:30;;;;;;;;;5.00;4.00;;;;;11.79;75.13;102666.97;5033371;27;45321;-69
2022/11/11 07:38:55;;;;;;;;;4.75;4.25;;;;;11.82;75.05;102668.66;5033483;27;45288;-68
2022/11/11 07:41:21;;;;;;;;;9.25;7.00;;;;;11.60;75.04;102619.47;5034023;27;45386;-72
2022/11/11 07:43:47;;;;;;;;;6.75;4.50;;;;;12.04;75.15;102701.81;5033743;28;45577;-69
2022/11/11 07:46:12;;;;;;;;;7.75;6.25;;;;;11.61;75.11;102641.72;5030959;28;45340;-69
2022/11/11 07:48:37;;;;;;;;;11.00;7.50;;;;;11.83;75.20;102671.28;5023239;28;45330;-69
2022/11/11 07:51:03;;;;;;;;;6.25;6.25;;;;;11.69;74.87;102639.69;4995508;28;45333;-68
2022/11/11 07:53:28;;;;;;;;;6.00;6.00;;;;;12.00;75.23;102693.94;5013523;28;45599;-67
2022/11/11 07:55:54;;;;;;;;;7.50;6.75;;;;;12.05;74.78;102695.53;5013408;28;45368;-68
2022/11/11 07:58:19;;;;;;;;;8.75;6.00;;;;;12.08;74.88;102694.56;5013376;28;45399;-69
2022/11/11 08:00:45;;;;;;;;;8.75;6.50;;;;;11.92;74.80;102660.28;5013214;27;45570;-69
2022/11/11 08:03:10;;;;;;;;;4.75;3.50;;;;;12.20;74.88;102694.13;5012882;28;45772;-69
2022/11/11 08:05:35;;;;;;;;;3.75;3.50;;;;;12.16;74.49;102686.25;5013050;27;45377;-69
2022/11/11 08:08:05;;;;;;;;;8.50;6.75;;;;;11.91;74.74;102638.94;5012217;28;45369;-69
2022/11/11 08:10:31;;;;;;;;;7.00;6.00;;;;;12.27;74.70;102705.50;5013606;28;45168;-69
2022/11/11 08:15:41;;;;;;;;;9.50;9.00;;;;;12.25;74.31;102691.28;5024507;27;45488;-69
2022/11/11 08:18:07;;;;;;;;;8.75;6.50;;;;;12.35;74.81;102706.09;5068269;27;45343;-68
2022/11/11 08:20:33;;;;;;;;;8.50;7.50;;;;;12.31;74.27;102695.53;5033597;28;45594;-67
2022/11/11 08:22:58;;;;;;;;;11.00;8.25;;;;;12.01;74.00;102644.84;5032840;28;47110;-69
2022/11/11 08:25:24;;;;;;;;;9.75;6.25;;;;;12.16;74.12;102667.53;5033080;28;45581;-68
2022/11/11 08:28:00;;;;;;;;;8.75;8.00;;;;;12.43;73.72;102712.03;5033068;28;45468;-69
2022/11/11 08:30:26;;;;;;;;;9.25;9.25;;;;;12.10;73.95;102648.06;5033136;28;45444;-69
2022/11/11 08:32:59;;;;;;;;;10.00;10.00;;;;;12.28;73.51;102664.41;5033013;28;45316;-68
2022/11/11 08:35:24;;;;;;;;;12.50;9.00;;;;;12.40;73.82;102682.72;5032329;28;45410;-69
2022/11/11 08:37:50;;;;;;;;;9.50;9.50;;;;;12.54;73.52;102702.75;5032750;28;45417;-69
2022/11/11 08:40:16;;;;;;;;;11.25;10.25;;;;;12.56;73.56;102695.53;5033029;28;45450;-68
2022/11/11 08:42:41;;;;;;;;;12.75;12.75;;;;;12.51;74.27;102692.13;5032934;28;47164;-68
2022/11/11 08:45:08;;;;;;;;;14.00;13.25;;;;;12.57;74.17;102705.31;5032456;28;45414;-68
2022/11/11 08:47:34;;;;;;;;;21.75;19.25;;;;;12.48;73.58;102676.19;5029421;27;45449;-68
2022/11/11 08:50:00;;;;;;;;;12.25;11.25;;;;;12.70;73.73;102714.66;5013187;28;45559;-68
2022/11/11 08:52:25;;;;;;;;;11.75;10.00;;;;;12.61;73.81;102688.22;5028153;28;45478;-68
2022/11/11 08:54:50;;;;;;;;;11.50;10.00;;;;;12.55;73.82;102686.63;5012994;28;45397;-69
2022/11/11 08:57:16;;;;;;;;;12.75;8.25;;;;;12.51;73.46;102681.44;5013010;28;45503;-71
2022/11/11 08:59:41;;;;;;;;;12.50;10.00;;;;;12.70;73.38;102714.66;5013496;27;45280;-68
2022/11/11 09:02:14;;;;;;;;;13.00;12.00;;;;;12.64;73.46;102720.22;5015293;28;46254;-69
2022/11/11 09:04:40;;;;;;;;;9.00;7.00;;;;;12.64;73.70;102730.94;5020525;28;45709;-68
2022/11/11 09:07:07;;;;;;;;;9.25;9.25;;;;;12.45;73.35;102720.88;5011133;28;45335;-68
2022/11/11 09:09:33;;;;;;;;;9.00;9.00;;;;;12.54;73.53;102730.38;5012688;28;45599;-68
2022/11/11 09:11:58;;;;;;;;;10.75;10.50;;;;;12.53;73.68;102734.00;5012562;28;46513;-69
2022/11/11 09:14:24;;;;;;;;;11.00;11.00;;;;;12.48;73.91;102738.63;5014140;28;45350;-68
2022/11/11 09:16:50;;;;;;;;;8.75;8.50;;;;;12.37;74.55;102733.66;5033217;28;45398;-68
2022/11/11 09:19:15;;;;;;;;;10.75;10.00;;;;;12.41;74.06;102729.94;5028817;27;45380;-68
2022/11/11 09:21:40;;;;;;;;;9.00;7.50;;;;;12.53;74.36;102730.44;5016515;28;46319;-68
2022/11/11 09:24:06;;;;;;;;;9.00;9.00;;;;;12.59;74.86;102738.25;5012215;28;45447;-69
2022/11/11 09:26:31;;;;;;;;;12.50;11.75;;;;;12.63;74.62;102731.84;5012248;28;45529;-69
2022/11/11 09:28:56;;;;;;;;;17.50;14.25;;;;;12.65;74.06;102742.53;5014335;28;45550;-68
2022/11/11 09:31:22;;;;;;;;;15.75;14.00;;;;;12.65;73.99;102734.50;5021185;28;46505;-68
2022/11/11 09:33:51;;;;;;;;;17.50;14.50;;;;;12.55;73.66;102720.53;5027501;28;45428;-68
2022/11/11 09:36:17;;;;;;;;;14.25;12.25;;;;;12.67;73.82;102744.19;5012079;28;45656;-68
2022/11/11 09:38:42;;;;;;;;;12.50;11.50;;;;;12.65;74.00;102748.75;5011851;28;45383;-68
2022/11/11 09:41:07;;;;;;;;;14.50;13.75;;;;;12.73;73.75;102745.81;5027616;28;45427;-68
2022/11/11 09:43:39;;;;;;;;;14.75;11.75;;;;;12.74;73.36;102742.16;5031933;28;45334;-69
2022/11/11 09:46:16;;;;;;;;;14.00;14.00;;;;;12.81;73.11;102741.03;5032145;28;45351;-67
2022/11/11 09:49:07;;;;;;;;;13.00;12.75;;;;;12.95;72.84;102741.38;5031116;28;45524;-71
2022/11/11 09:51:44;;;;;;;;;9.50;9.50;;;;;12.87;72.50;102730.06;5031158;28;45437;-67
2022/11/11 09:54:17;;;;;;;;;18.50;17.50;;;;;12.75;72.88;102701.06;5013309;28;45803;-68
2022/11/11 09:56:44;;;;;;;;;16.25;15.00;;;;;12.38;72.68;102628.34;4994740;28;45340;-67
2022/11/11 09:59:39;;;;;;;;;14.50;12.50;;;;;12.94;72.60;102723.56;5012086;28;45319;-68
2022/11/11 10:02:17;;;;;;;;;9.50;7.25;;;;;12.87;72.00;102722.03;4994002;28;45894;-67
2022/11/11 10:04:51;;;;;;;;;9.25;8.00;;;;;13.03;72.93;102748.25;4993560;28;45350;-69
2022/11/11 10:07:32;;;;;;;;;8.50;8.50;;;;;13.02;72.05;102752.72;5011085;28;45337;-68
2022/11/11 10:10:07;;;;;;;;;9.25;8.00;;;;;12.89;71.68;102746.97;5011913;28;45573;-68
2022/11/11 10:12:39;;;;;;;;;10.00;8.75;;;;;12.91;72.33;102750.44;4997092;27;47159;-68
2022/11/11 10:15:10;;;;;;;;;8.50;8.00;;;;;12.84;72.40;102745.41;5031699;28;45449;-68
2022/11/11 10:17:59;;;;;;;;;8.50;8.50;;;;;12.74;72.45;102761.81;5031386;28;45295;-69
2022/11/11 10:20:34;;;;;;;;;8.75;8.25;;;;;12.60;72.44;102735.50;5031965;28;45325;-68
2022/11/11 10:23:12;;;;;;;;;12.00;10.75;;;;;12.65;72.96;102743.38;5031691;28;45411;-70
2022/11/11 10:25:50;;;;;;;;;7.50;6.75;;;;;12.63;73.04;102737.19;5031395;28;45421;-70
2022/11/11 10:28:19;;;;;;;;;12.00;10.50;;;;;12.80;72.83;102755.34;5031622;28;45890;-70
2022/11/11 10:30:46;;;;;;;;;11.50;10.25;;;;;12.59;72.54;102720.41;5014009;28;45448;-70
2022/11/11 10:33:18;;;;;;;;;12.75;11.00;;;;;12.74;72.38;102735.03;5030860;27;47478;-70
2022/11/11 10:35:47;;;;;;;;;11.75;9.75;;;;;12.91;72.49;102758.50;5019922;27;45539;-70
2022/11/11 10:38:19;;;;;;;;;14.25;14.00;;;;;12.92;71.90;102756.69;5031342;27;45389;-70
2022/11/11 10:40:54;;;;;;;;;13.00;11.00;;;;;12.95;71.72;102757.44;5085891;27;45438;-69
2022/11/11 10:43:25;;;;;;;;;11.00;10.25;;;;;12.69;71.97;102704.84;5029859;28;45418;-67
2022/11/11 10:46:14;;;;;;;;;16.75;15.75;;;;;12.96;72.43;102759.19;5029969;28;45299;-68
2022/11/11 10:49:01;;;;;;;;;15.50;12.00;;;;;12.92;71.74;102752.22;5020917;28;45498;-70
2022/11/11 10:51:32;;;;;;;;;10.50;10.50;;;;;12.94;72.00;102760.19;5030722;28;45456;-69
2022/11/11 10:54:04;;;;;;;;;11.00;11.00;;;;;12.90;72.13;102764.81;5030599;28;45464;-69
2022/11/11 10:56:38;;;;;;;;;12.50;11.00;;;;;12.90;72.15;102753.19;5030421;27;45369;-70
2022/11/11 10:59:12;;;;;;;;;9.75;9.75;;;;;12.91;72.11;102755.81;5031715;27;45433;-72
2022/11/11 11:01:51;;;;;;;;;11.00;9.25;;;;;13.00;71.98;102759.97;5027828;27;45316;-70
2022/11/11 11:04:41;;;;;;;;;7.25;7.25;;;;;13.05;71.78;102768.72;5073356;27;46246;-68
2022/11/11 11:07:10;;;;;;;;;11.75;10.25;;;;;13.09;71.69;102756.03;5024676;27;45401;-73
2022/11/11 11:09:44;;;;;;;;;12.75;9.75;;;;;13.15;71.92;102753.16;5030515;28;45402;-69
2022/11/11 11:12:21;;;;;;;;;12.25;8.50;;;;;13.17;71.30;102759.31;5067054;27;45504;-69
2022/11/11 11:14:55;;;;;;;;;9.00;9.00;;;;;13.03;70.96;102711.63;5040134;27;45674;-68
2022/11/11 11:17:33;;;;;;;;;12.00;11.50;;;;;13.26;71.56;102728.63;5030438;28;45296;-68
2022/11/11 11:20:06;;;;;;;;;12.50;12.50;;;;;13.45;70.64;102729.66;5021675;28;45282;-68
2022/11/11 11:22:52;;;;;;;;;14.25;13.00;;;;;13.58;71.12;102734.53;5027066;28;45373;-69
2022/11/11 11:25:19;;;;;;;;;13.25;13.00;;;;;13.59;69.36;102730.91;5046735;27;47899;-68
2022/11/11 11:27:46;;;;;;;;;12.50;12.25;;;;;13.70;69.39;102734.03;5026590;28;45408;-68
2022/11/11 11:30:24;;;;;;;;;13.75;12.25;;;;;13.82;69.56;102731.78;5031996;27;45378;-67
2022/11/11 11:33:00;;;;;;;;;17.00;14.75;;;;;14.08;69.75;102734.25;5033375;28;45229;-69
2022/11/11 11:35:33;;;;;;;;;14.50;14.50;;;;;14.26;68.28;102720.97;5032912;28;46293;-67
2022/11/11 11:37:59;;;;;;;;;12.75;12.00;;;;;14.45;68.13;102721.03;5031823;28;45410;-68
2022/11/11 11:40:24;;;;;;;;;16.75;13.00;;;;;14.70;68.26;102714.59;5032121;28;45419;-67
2022/11/11 11:42:49;;;;;;;;;15.00;13.00;;;;;14.96;67.88;102718.78;5041062;28;45549;-68
2022/11/11 11:45:21;;;;;;;;;10.00;10.00;;;;;15.22;66.14;102712.16;5031580;28;45259;-68
2022/11/11 11:48:10;;;;;;;;;13.00;13.00;;;;;15.37;65.94;102712.38;5029409;28;45360;-67
2022/11/11 11:50:45;;;;;;;;;14.50;8.50;;;;;15.52;65.90;102708.06;5030875;28;45493;-68
2022/11/11 11:53:50;;;;;;;;;13.25;12.75;;;;;15.72;63.96;102707.06;5030201;28;45499;-70
2022/11/11 11:56:36;;;;;;;;;12.00;12.00;;;;;15.69;63.87;102704.53;5030945;28;45526;-69
2022/11/11 11:59:20;;;;;;;;;10.50;10.00;;;;;15.67;64.59;102693.88;5031973;28;45191;-68
2022/11/11 12:02:07;;;;;;;;;15.00;13.00;;;;;15.78;64.06;102694.19;5029290;27;45223;-69
2022/11/11 12:05:01;;;;;;;;;12.75;10.50;;;;;15.71;63.22;102671.22;5031711;28;45340;-68
2022/11/11 12:07:51;;;;;;;;;11.25;9.75;;;;;15.91;63.65;102688.19;5032453;28;45425;-69
2022/11/11 12:10:26;;;;;;;;;9.25;9.25;;;;;16.13;63.26;102686.16;5032704;28;45375;-71
2022/11/11 12:12:51;;;;;;;;;10.50;10.50;;;;;16.46;62.44;102676.38;5032861;28;45431;-71
2022/11/11 12:15:48;;;;;;;;;10.25;9.25;;;;;16.59;61.24;102685.53;5032344;28;45545;-70
2022/11/11 12:18:26;;;;;;;;;9.50;9.50;;;;;16.73;61.48;102686.59;5029633;28;45326;-71
2022/11/11 12:21:06;;;;;;;;;11.50;10.00;;;;;16.56;61.33;102690.19;5033044;28;45306;-71
2022/11/11 12:23:43;;;;;;;;;9.25;9.25;;;;;16.18;61.42;102652.72;5032848;27;45341;-72
2022/11/11 12:26:47;;;;;;;;;11.75;10.75;;;;;15.95;61.35;102639.53;5036406;27;45280;-72
2022/11/11 12:29:22;;;;;;;;;8.25;8.25;;;;;16.20;61.96;102680.47;5040640;27;45773;-70
2022/11/11 12:32:05;;;;;;;;;10.00;9.00;;;;;16.31;61.92;102670.84;5017272;28;45453;-72
2022/11/11 12:34:30;;;;;;;;;14.25;14.25;;;;;16.47;61.32;102678.97;5032553;28;45545;-71
2022/11/11 12:37:31;;;;;;;;;11.25;10.75;;;;;16.54;61.99;102675.97;5031932;28;45474;-72
2022/11/11 12:40:15;;;;;;;;;9.50;9.50;;;;;16.58;61.13;102672.16;5017570;28;45592;-72
2022/11/11 12:42:55;;;;;;;;;11.75;11.50;;;;;16.47;61.39;102665.50;5031046;28;45483;-72
2022/11/11 12:45:25;;;;;;;;;12.00;12.00;;;;;16.48;60.94;102656.47;5032298;27;45415;-72
2022/11/11 12:48:10;;;;;;;;;13.25;10.50;;;;;16.40;61.13;102656.03;5040329;27;45563;-76
2022/11/11 12:50:44;;;;;;;;;11.25;11.00;;;;;16.11;61.94;102599.22;5033897;28;46315;-76
2022/11/11 12:53:45;;;;;;;;;10.50;10.50;;;;;16.40;61.23;102647.94;5035935;28;45376;-76